createdAt,value
2019-06-20T00:00:01.203Z,986.44
2019-06-20T00:01:01.199Z,986.43
2019-06-20T00:02:01.202Z,986.41
2019-06-20T00:03:01.196Z,986.44
2019-06-20T00:04:01.222Z,986.45
2019-06-20T00:05:01.202Z,986.43
2019-06-20T00:06:01.203Z,986.43
2019-06-20T00:07:01.209Z,986.5
2019-06-20T00:08:01.203Z,986.5
2019-06-20T00:09:01.202Z,986.51
2019-06-20T00:10:01.208Z,986.55
2019-06-20T00:11:01.208Z,986.57
2019-06-20T00:12:01.206Z,986.61
2019-06-20T00:13:01.245Z,986.67
2019-06-20T00:14:01.209Z,986.76
2019-06-20T00:15:01.209Z,986.82
2019-06-20T00:16:01.215Z,986.89
2019-06-20T00:17:01.211Z,986.95
2019-06-20T00:18:01.211Z,987
2019-06-20T00:19:01.219Z,987.02
2019-06-20T00:20:01.216Z,987.05
2019-06-20T00:21:01.231Z,987.02
2019-06-20T00:22:01.217Z,987.04
2019-06-20T00:23:01.233Z,987.01
2019-06-20T00:24:01.235Z,987.04
2019-06-20T00:25:02.906Z,986.98
2019-06-20T00:26:01.219Z,986.99
2019-06-20T00:27:01.219Z,987.03
2019-06-20T00:28:01.221Z,987.06
2019-06-20T00:29:01.251Z,987.1
2019-06-20T00:30:01.233Z,987.13
2019-06-20T00:31:01.234Z,987.09
2019-06-20T00:32:01.233Z,987.07
2019-06-20T00:33:01.228Z,987.06
2019-06-20T00:34:01.230Z,987.05
2019-06-20T00:35:01.237Z,987.02
2019-06-20T00:36:01.240Z,987
2019-06-20T00:37:01.246Z,986.99
2019-06-20T00:38:01.234Z,986.94
2019-06-20T00:39:01.237Z,986.98
2019-06-20T00:40:01.245Z,987.02
2019-06-20T00:41:01.244Z,987
2019-06-20T00:42:01.244Z,987.02
2019-06-20T00:43:16.153Z,987.02
2019-06-20T00:44:01.261Z,986.96
2019-06-20T00:45:01.257Z,986.93
2019-06-20T00:46:01.264Z,986.87
2019-06-20T00:47:01.249Z,986.93
2019-06-20T00:48:01.255Z,986.86
2019-06-20T00:49:01.251Z,986.84
2019-06-20T00:50:01.272Z,986.86
2019-06-20T00:51:01.257Z,986.84
2019-06-20T00:52:01.258Z,986.82
2019-06-20T00:53:01.257Z,986.79
2019-06-20T00:54:01.264Z,986.81
2019-06-20T00:55:01.265Z,986.79
2019-06-20T00:56:01.290Z,986.76
2019-06-20T00:57:01.306Z,986.7
2019-06-20T00:58:01.288Z,986.72
2019-06-20T00:59:01.279Z,986.75
2019-06-20T01:00:01.292Z,986.67
2019-06-20T01:01:01.310Z,986.69
2019-06-20T01:02:01.289Z,986.68
2019-06-20T01:03:01.292Z,986.69
2019-06-20T01:04:01.274Z,986.73
2019-06-20T01:05:01.282Z,986.7
2019-06-20T01:06:01.331Z,986.76
2019-06-20T01:07:01.294Z,986.81
2019-06-20T01:08:01.294Z,986.78
2019-06-20T01:09:01.290Z,986.83
2019-06-20T01:10:01.479Z,986.86
2019-06-20T01:11:01.292Z,986.82
2019-06-20T01:12:01.296Z,986.89
2019-06-20T01:13:01.301Z,986.87
2019-06-20T01:14:01.294Z,986.9
2019-06-20T01:15:01.358Z,986.91
2019-06-20T01:16:01.297Z,986.9
2019-06-20T01:17:01.299Z,986.85
2019-06-20T01:18:01.297Z,986.88
2019-06-20T01:19:01.295Z,986.91
2019-06-20T01:20:01.343Z,986.88
2019-06-20T01:21:01.301Z,986.88
2019-06-20T01:22:01.300Z,986.91
2019-06-20T01:23:01.303Z,986.92
2019-06-20T01:24:01.305Z,986.9
2019-06-20T01:25:01.304Z,986.86
2019-06-20T01:26:01.327Z,986.88
2019-06-20T01:27:01.312Z,986.86
2019-06-20T01:28:01.482Z,986.87
2019-06-20T01:29:01.315Z,986.87
2019-06-20T01:30:01.325Z,986.85
2019-06-20T01:31:01.312Z,986.86
2019-06-20T01:32:01.313Z,986.87
2019-06-20T01:33:01.315Z,986.85
2019-06-20T01:34:01.329Z,986.87
2019-06-20T01:35:01.326Z,986.83
2019-06-20T01:36:01.326Z,986.84
2019-06-20T01:37:01.318Z,986.88
2019-06-20T01:38:01.329Z,986.88
2019-06-20T01:39:01.328Z,986.9
2019-06-20T01:40:01.335Z,986.88
2019-06-20T01:41:05.028Z,986.91
2019-06-20T01:42:01.374Z,986.86
2019-06-20T01:43:01.336Z,986.83
2019-06-20T01:44:01.325Z,986.85
2019-06-20T01:45:01.337Z,986.89
2019-06-20T01:46:04.420Z,986.87
2019-06-20T01:47:01.409Z,986.87
2019-06-20T01:48:01.326Z,986.84
2019-06-20T01:49:01.325Z,986.81
2019-06-20T01:50:01.335Z,986.78
2019-06-20T01:51:01.331Z,986.8
2019-06-20T01:52:01.440Z,986.82
2019-06-20T01:53:01.366Z,986.85
2019-06-20T01:54:01.334Z,986.87
2019-06-20T01:55:01.336Z,986.91
2019-06-20T01:56:01.334Z,986.91
2019-06-20T01:57:01.334Z,986.95
2019-06-20T01:58:01.360Z,986.95
2019-06-20T01:59:01.348Z,986.99
2019-06-20T02:00:01.381Z,987.02
2019-06-20T02:01:01.337Z,987.07
2019-06-20T02:02:01.338Z,987.14
2019-06-20T02:03:01.346Z,987.17
2019-06-20T02:04:01.348Z,987.23
2019-06-20T02:05:01.379Z,987.25
2019-06-20T02:06:01.344Z,987.32
2019-06-20T02:07:01.361Z,987.38
2019-06-20T02:08:01.443Z,987.43
2019-06-20T02:09:01.346Z,987.38
2019-06-20T02:10:01.346Z,987.36
2019-06-20T02:11:01.352Z,987.38
2019-06-20T02:12:01.351Z,987.3
2019-06-20T02:13:01.348Z,987.21
2019-06-20T02:14:06.988Z,987.25
2019-06-20T02:15:01.378Z,987.24
2019-06-20T02:16:01.366Z,987.18
2019-06-20T02:17:01.357Z,987.21
2019-06-20T02:18:01.357Z,987.21
2019-06-20T02:19:01.356Z,987.18
2019-06-20T02:20:01.372Z,987.19
2019-06-20T02:21:01.371Z,987.16
2019-06-20T02:22:01.360Z,987.07
2019-06-20T02:23:01.360Z,986.99
2019-06-20T02:24:01.372Z,986.96
2019-06-20T02:25:01.375Z,986.97
2019-06-20T02:26:01.371Z,987
2019-06-20T02:27:01.521Z,987.04
2019-06-20T02:28:01.373Z,987.07
2019-06-20T02:29:01.374Z,987.1
2019-06-20T02:30:01.379Z,987.03
2019-06-20T02:31:01.378Z,986.99
2019-06-20T02:32:01.373Z,986.92
2019-06-20T02:33:01.375Z,986.88
2019-06-20T02:34:01.376Z,986.8
2019-06-20T02:35:01.382Z,986.74
2019-06-20T02:36:01.383Z,986.71
2019-06-20T02:37:01.384Z,986.76
2019-06-20T02:38:01.379Z,986.78
2019-06-20T02:39:01.410Z,986.84
2019-06-20T02:40:01.385Z,986.88
2019-06-20T02:41:01.385Z,986.93
2019-06-20T02:42:01.398Z,986.91
2019-06-20T02:43:01.384Z,986.91
2019-06-20T02:44:01.387Z,986.86
2019-06-20T02:45:01.386Z,986.86
2019-06-20T02:46:01.394Z,986.85
2019-06-20T02:47:01.390Z,986.87
2019-06-20T02:48:01.392Z,986.9
2019-06-20T02:49:01.394Z,986.88
2019-06-20T02:50:01.395Z,986.89
2019-06-20T02:51:01.401Z,986.93
2019-06-20T02:52:01.398Z,986.94
2019-06-20T02:53:01.396Z,987.03
2019-06-20T02:54:01.402Z,987.04
2019-06-20T02:55:03.800Z,987.06
2019-06-20T02:56:01.404Z,987.07
2019-06-20T02:57:01.409Z,987.09
2019-06-20T02:58:01.409Z,987.1
2019-06-20T02:59:01.405Z,987.13
2019-06-20T03:00:01.472Z,987.14
2019-06-20T03:01:01.407Z,987.15
2019-06-20T03:02:01.408Z,987.12
2019-06-20T03:03:01.429Z,987.1
2019-06-20T03:04:01.408Z,987.09
2019-06-20T03:05:01.428Z,987.06
2019-06-20T03:06:01.411Z,987.05
2019-06-20T03:07:01.422Z,987.06
2019-06-20T03:08:01.413Z,987.06
2019-06-20T03:09:01.415Z,987.11
2019-06-20T03:10:01.423Z,987.1
2019-06-20T03:11:01.421Z,987.12
2019-06-20T03:12:01.422Z,987.11
2019-06-20T03:13:01.417Z,987.17
2019-06-20T03:14:01.419Z,987.17
2019-06-20T03:15:01.440Z,987.17
2019-06-20T03:16:01.443Z,987.17
2019-06-20T03:17:01.422Z,987.2
2019-06-20T03:18:01.424Z,987.15
2019-06-20T03:19:01.426Z,987.18
2019-06-20T03:20:01.424Z,987.17
2019-06-20T03:21:01.426Z,987.16
2019-06-20T03:22:01.467Z,987.14
2019-06-20T03:23:01.429Z,987.19
2019-06-20T03:24:01.428Z,987.19
2019-06-20T03:25:01.432Z,987.19
2019-06-20T03:26:01.434Z,987.22
2019-06-20T03:27:01.428Z,987.2
2019-06-20T03:28:01.431Z,987.24
2019-06-20T03:29:01.435Z,987.24
2019-06-20T03:30:01.435Z,987.3
2019-06-20T03:31:01.439Z,987.3
2019-06-20T03:32:01.445Z,987.28
2019-06-20T03:33:01.445Z,987.33
2019-06-20T03:34:01.436Z,987.33
2019-06-20T03:35:01.437Z,987.37
2019-06-20T03:36:01.580Z,987.39
2019-06-20T03:37:01.451Z,987.39
2019-06-20T03:38:01.442Z,987.42
2019-06-20T03:39:01.441Z,987.45
2019-06-20T03:40:01.498Z,987.5
2019-06-20T03:41:01.440Z,987.52
2019-06-20T03:42:01.441Z,987.52
2019-06-20T03:43:01.442Z,987.57
2019-06-20T03:44:01.446Z,987.63
2019-06-20T03:45:02.617Z,987.65
2019-06-20T03:46:01.443Z,987.69
2019-06-20T03:47:01.449Z,987.66
2019-06-20T03:48:01.482Z,987.68
2019-06-20T03:49:01.444Z,987.74
2019-06-20T03:50:01.450Z,987.8
2019-06-20T03:51:01.449Z,987.81
2019-06-20T03:52:01.448Z,987.87
2019-06-20T03:53:01.473Z,987.88
2019-06-20T03:54:01.449Z,987.9
2019-06-20T03:55:01.451Z,987.92
2019-06-20T03:56:01.451Z,987.9
2019-06-20T03:57:01.450Z,987.92
2019-06-20T03:58:01.451Z,987.96
2019-06-20T03:59:01.454Z,987.92
2019-06-20T04:00:01.453Z,987.92
2019-06-20T04:01:01.466Z,987.94
2019-06-20T04:02:01.457Z,988.02
2019-06-20T04:03:01.459Z,988.1
2019-06-20T04:04:01.456Z,988.17
2019-06-20T04:05:01.458Z,988.24
2019-06-20T04:06:01.458Z,988.33
2019-06-20T04:07:01.469Z,988.29
2019-06-20T04:08:01.478Z,988.29
2019-06-20T04:09:01.471Z,988.19
2019-06-20T04:10:01.461Z,988.22
2019-06-20T04:11:01.460Z,988.23
2019-06-20T04:12:01.462Z,988.28
2019-06-20T04:13:01.476Z,988.21
2019-06-20T04:14:01.465Z,988.25
2019-06-20T04:15:15.016Z,988.26
2019-06-20T04:16:01.475Z,988.23
2019-06-20T04:17:01.484Z,988.34
2019-06-20T04:18:01.468Z,988.39
2019-06-20T04:19:01.468Z,988.34
2019-06-20T04:20:01.475Z,988.4
2019-06-20T04:21:01.475Z,988.37
2019-06-20T04:22:01.481Z,988.42
2019-06-20T04:23:01.476Z,988.4
2019-06-20T04:24:01.469Z,988.32
2019-06-20T04:25:01.471Z,988.35
2019-06-20T04:26:01.472Z,988.24
2019-06-20T04:27:01.477Z,988.36
2019-06-20T04:28:01.473Z,988.29
2019-06-20T04:29:01.475Z,988.23
2019-06-20T04:30:01.475Z,988.16
2019-06-20T04:31:01.477Z,988.11
2019-06-20T04:32:01.476Z,988.09
2019-06-20T04:33:01.474Z,988.05
2019-06-20T04:34:01.503Z,987.98
2019-06-20T04:35:01.476Z,987.91
2019-06-20T04:36:01.542Z,987.88
2019-06-20T04:37:01.484Z,987.89
2019-06-20T04:38:01.476Z,987.83
2019-06-20T04:39:01.703Z,987.83
2019-06-20T04:40:01.497Z,987.8
2019-06-20T04:41:01.478Z,987.78
2019-06-20T04:42:01.483Z,987.79
2019-06-20T04:43:01.514Z,987.85
2019-06-20T04:44:01.526Z,987.89
2019-06-20T04:45:01.492Z,987.93
2019-06-20T04:46:01.481Z,987.91
2019-06-20T04:47:01.558Z,987.92
2019-06-20T04:48:01.494Z,987.79
2019-06-20T04:49:01.490Z,987.72
2019-06-20T04:50:01.550Z,987.57
2019-06-20T04:51:01.497Z,987.4
2019-06-20T04:52:01.493Z,987.17
2019-06-20T04:53:01.492Z,986.88
2019-06-20T04:54:01.490Z,986.79
2019-06-20T04:55:01.495Z,986.81
2019-06-20T04:56:04.621Z,986.8
2019-06-20T04:57:01.485Z,986.88
2019-06-20T04:58:01.496Z,987.03
2019-06-20T04:59:01.496Z,987.28
2019-06-20T05:00:01.492Z,987.51
2019-06-20T05:01:01.487Z,987.67
2019-06-20T05:02:01.555Z,987.75
2019-06-20T05:03:01.494Z,987.82
2019-06-20T05:04:01.486Z,987.86
2019-06-20T05:05:01.498Z,987.82
2019-06-20T05:06:01.501Z,987.77
2019-06-20T05:07:01.493Z,987.75
2019-06-20T05:08:01.501Z,987.71
2019-06-20T05:09:01.509Z,987.78
2019-06-20T05:10:01.487Z,987.83
2019-06-20T05:11:01.500Z,987.83
2019-06-20T05:12:01.493Z,987.85
2019-06-20T05:13:01.503Z,987.81
2019-06-20T05:14:01.498Z,987.87
2019-06-20T05:15:01.689Z,987.83
2019-06-20T05:16:01.495Z,987.82
2019-06-20T05:17:01.504Z,987.78
2019-06-20T05:18:01.487Z,987.74
2019-06-20T05:19:01.494Z,987.74
2019-06-20T05:20:01.502Z,987.76
2019-06-20T05:21:01.505Z,987.79
2019-06-20T05:22:01.493Z,987.79
2019-06-20T05:23:01.488Z,987.81
2019-06-20T05:24:01.510Z,987.78
2019-06-20T05:25:01.501Z,987.82
2019-06-20T05:26:01.505Z,987.84
2019-06-20T05:27:01.500Z,987.88
2019-06-20T05:28:01.493Z,987.88
2019-06-20T05:29:04.543Z,987.91
2019-06-20T05:30:01.789Z,987.87
2019-06-20T05:31:01.495Z,987.86
2019-06-20T05:32:01.515Z,987.83
2019-06-20T05:33:01.500Z,987.85
2019-06-20T05:34:01.500Z,987.79
2019-06-20T05:35:03.025Z,987.76
2019-06-20T05:36:01.490Z,987.77
2019-06-20T05:37:01.518Z,987.75
2019-06-20T05:38:01.501Z,987.71
2019-06-20T05:39:01.500Z,987.75
2019-06-20T05:40:01.519Z,987.73
2019-06-20T05:41:01.492Z,987.76
2019-06-20T05:42:01.507Z,987.74
2019-06-20T05:43:01.504Z,987.72
2019-06-20T05:44:01.506Z,987.71
2019-06-20T05:45:01.519Z,987.73
2019-06-20T05:46:09.197Z,987.72
2019-06-20T05:47:11.729Z,987.73
2019-06-20T05:48:01.508Z,987.71
2019-06-20T05:49:01.503Z,987.74
2019-06-20T05:50:01.632Z,987.72
2019-06-20T05:51:01.526Z,987.66
2019-06-20T05:52:01.501Z,987.69
2019-06-20T05:53:01.523Z,987.64
2019-06-20T05:54:01.517Z,987.69
2019-06-20T05:55:01.514Z,987.69
2019-06-20T05:56:01.518Z,987.63
2019-06-20T05:57:03.576Z,987.71
2019-06-20T05:58:01.527Z,987.75
2019-06-20T05:59:01.526Z,987.69
2019-06-20T06:00:01.524Z,987.67
2019-06-20T06:01:01.531Z,987.79
2019-06-20T06:02:01.525Z,987.72
2019-06-20T06:03:01.525Z,987.72
2019-06-20T06:04:01.524Z,987.72
2019-06-20T06:05:01.731Z,987.72
2019-06-20T06:06:01.518Z,987.7
2019-06-20T06:07:01.527Z,987.75
2019-06-20T06:08:01.538Z,987.67
2019-06-20T06:09:01.646Z,987.72
2019-06-20T06:10:03.960Z,987.58
2019-06-20T06:11:01.547Z,987.54
2019-06-20T06:12:01.548Z,987.53
2019-06-20T06:13:01.558Z,987.57
2019-06-20T06:14:01.559Z,987.6
2019-06-20T06:15:01.555Z,987.63
2019-06-20T06:16:01.575Z,987.69
2019-06-20T06:17:01.583Z,987.77
2019-06-20T06:18:01.567Z,987.76
2019-06-20T06:19:01.596Z,987.82
2019-06-20T06:20:01.593Z,987.89
2019-06-20T06:21:01.597Z,987.87
2019-06-20T06:22:01.583Z,987.84
2019-06-20T06:23:01.597Z,987.87
2019-06-20T06:24:01.621Z,987.84
2019-06-20T06:25:01.643Z,987.8
2019-06-20T06:26:01.643Z,987.77
2019-06-20T06:27:01.616Z,987.8
2019-06-20T06:28:01.615Z,987.79
2019-06-20T06:29:01.811Z,987.76
2019-06-20T06:30:01.936Z,987.78
2019-06-20T06:31:01.636Z,987.74
2019-06-20T06:32:01.701Z,987.77
2019-06-20T06:33:01.655Z,987.74
2019-06-20T06:34:01.651Z,987.78
2019-06-20T06:35:01.685Z,987.73
2019-06-20T06:36:01.698Z,987.76
2019-06-20T06:37:01.659Z,987.72
2019-06-20T06:38:01.672Z,987.8
2019-06-20T06:39:01.678Z,987.73
2019-06-20T06:40:01.752Z,987.78
2019-06-20T06:41:01.682Z,987.73
2019-06-20T06:42:01.687Z,987.72
2019-06-20T06:43:01.721Z,987.76
2019-06-20T06:44:01.711Z,987.71
2019-06-20T06:45:01.714Z,987.72
2019-06-20T06:46:01.757Z,987.69
2019-06-20T06:47:01.708Z,987.7
2019-06-20T06:48:01.714Z,987.7
2019-06-20T06:49:01.739Z,987.68
2019-06-20T06:50:01.721Z,987.7
2019-06-20T06:51:01.991Z,987.69
2019-06-20T06:52:01.734Z,987.73
2019-06-20T06:53:01.738Z,987.75
2019-06-20T06:54:01.753Z,987.76
2019-06-20T06:55:01.744Z,987.78
2019-06-20T06:56:01.750Z,987.76
2019-06-20T06:57:01.905Z,987.79
2019-06-20T06:58:01.763Z,987.75
2019-06-20T06:59:01.764Z,987.76
2019-06-20T07:00:01.772Z,987.75
2019-06-20T07:01:01.776Z,987.78
2019-06-20T07:02:01.779Z,987.77
2019-06-20T07:03:01.785Z,987.79
2019-06-20T07:04:01.793Z,987.78
2019-06-20T07:05:01.996Z,987.8
2019-06-20T07:06:01.802Z,987.82
2019-06-20T07:07:01.806Z,987.77
2019-06-20T07:08:01.811Z,987.79
2019-06-20T07:09:01.810Z,987.79
2019-06-20T07:10:01.858Z,987.71
2019-06-20T07:11:01.825Z,987.76
2019-06-20T07:12:02.655Z,987.73
2019-06-20T07:13:01.839Z,987.67
2019-06-20T07:14:01.865Z,987.74
2019-06-20T07:15:01.841Z,987.78
2019-06-20T07:16:01.858Z,987.85
2019-06-20T07:17:01.853Z,987.84
2019-06-20T07:18:01.862Z,987.87
2019-06-20T07:19:01.867Z,987.88
2019-06-20T07:20:01.873Z,987.87
2019-06-20T07:21:01.894Z,987.82
2019-06-20T07:22:01.964Z,987.82
2019-06-20T07:23:01.895Z,987.85
2019-06-20T07:24:01.895Z,987.81
2019-06-20T07:25:01.906Z,987.82
2019-06-20T07:26:01.921Z,987.87
2019-06-20T07:27:01.921Z,987.83
2019-06-20T07:28:01.921Z,987.85
2019-06-20T07:29:01.934Z,987.81
2019-06-20T07:30:01.935Z,987.87
2019-06-20T07:31:01.940Z,987.88
2019-06-20T07:32:01.949Z,987.89
2019-06-20T07:33:01.951Z,987.96
2019-06-20T07:34:01.960Z,987.97
2019-06-20T07:35:01.968Z,987.9
2019-06-20T07:36:02.033Z,987.92
2019-06-20T07:37:01.977Z,987.95
2019-06-20T07:38:02.038Z,988.04
2019-06-20T07:39:01.991Z,988.03
2019-06-20T07:40:01.992Z,987.98
2019-06-20T07:41:02.004Z,988.02
2019-06-20T07:42:02.009Z,988
2019-06-20T07:43:02.017Z,988.03
2019-06-20T07:44:02.034Z,987.96
2019-06-20T07:45:02.106Z,987.99
2019-06-20T07:46:03.256Z,987.98
2019-06-20T07:47:16.534Z,987.92
2019-06-20T07:48:02.045Z,987.91
2019-06-20T07:49:02.056Z,987.93
2019-06-20T07:50:02.069Z,987.93
2019-06-20T07:51:02.067Z,987.93
2019-06-20T07:52:02.079Z,987.91
2019-06-20T07:53:02.979Z,987.9
2019-06-20T07:54:02.088Z,987.91
2019-06-20T07:55:02.099Z,987.87
2019-06-20T07:56:02.107Z,987.89
2019-06-20T07:57:02.121Z,987.88
2019-06-20T07:58:02.126Z,987.9
2019-06-20T07:59:02.126Z,987.84
2019-06-20T08:00:02.257Z,987.92
2019-06-20T08:01:02.161Z,987.88
2019-06-20T08:02:02.159Z,987.88
2019-06-20T08:03:02.187Z,987.82
2019-06-20T08:04:02.212Z,987.84
2019-06-20T08:05:02.279Z,987.87
2019-06-20T08:06:02.185Z,987.87
2019-06-20T08:07:02.190Z,987.91
2019-06-20T08:08:02.204Z,987.91
2019-06-20T08:09:02.219Z,987.9
2019-06-20T08:10:02.345Z,988.01
2019-06-20T08:11:02.225Z,987.83
2019-06-20T08:12:02.246Z,987.85
2019-06-20T08:13:02.243Z,987.86
2019-06-20T08:14:02.246Z,987.87
2019-06-20T08:15:14.293Z,987.82
2019-06-20T08:16:03.724Z,987.85
2019-06-20T08:17:02.272Z,987.98
2019-06-20T08:18:02.277Z,987.99
2019-06-20T08:19:02.288Z,987.78
2019-06-20T08:20:02.290Z,987.77
2019-06-20T08:21:02.376Z,987.78
2019-06-20T08:22:02.304Z,987.82
2019-06-20T08:23:02.306Z,987.8
2019-06-20T08:24:02.327Z,987.83
2019-06-20T08:25:03.294Z,987.81
2019-06-20T08:26:02.564Z,987.91
2019-06-20T08:27:03.168Z,987.93
2019-06-20T08:28:02.566Z,988
2019-06-20T08:29:11.394Z,988.04
2019-06-20T08:30:03.533Z,988.06
2019-06-20T08:31:02.585Z,988.06
2019-06-20T08:32:02.698Z,988.06
2019-06-20T08:33:05.857Z,988.06
2019-06-20T08:34:02.382Z,988.11
2019-06-20T08:35:02.509Z,988.09
2019-06-20T08:36:02.397Z,988.11
2019-06-20T08:37:02.468Z,988.09
2019-06-20T08:38:03.552Z,988.13
2019-06-20T08:39:02.649Z,988.16
2019-06-20T08:40:02.403Z,988.12
2019-06-20T08:41:02.437Z,988.09
2019-06-20T08:42:02.410Z,988.07
2019-06-20T08:43:04.121Z,988.12
2019-06-20T08:44:02.422Z,988.15
2019-06-20T08:45:03.833Z,988.14
2019-06-20T08:46:04.045Z,988.16
2019-06-20T08:47:03.770Z,988.17
2019-06-20T08:48:02.773Z,988.16
2019-06-20T08:49:03.586Z,988.09
2019-06-20T08:50:03.765Z,988.09
2019-06-20T08:51:02.454Z,988.22
2019-06-20T08:52:03.510Z,988.18
2019-06-20T08:53:03.590Z,988.13
2019-06-20T08:54:03.404Z,988.11
2019-06-20T08:55:03.348Z,988.15
2019-06-20T08:56:03.186Z,988.1
2019-06-20T08:57:03.981Z,988.06
2019-06-20T08:58:03.410Z,988.02
2019-06-20T08:59:02.668Z,988.04
2019-06-20T09:09:02.564Z,988.04
2019-06-20T09:10:04.145Z,988.02
2019-06-20T09:11:03.895Z,988.02
2019-06-20T09:12:02.574Z,987.98
2019-06-20T09:13:03.773Z,987.99
2019-06-20T09:14:04.006Z,987.99
2019-06-20T09:15:03.218Z,988.05
2019-06-20T09:16:03.040Z,988.02
2019-06-20T09:17:02.943Z,987.98
2019-06-20T09:18:02.948Z,987.99
2019-06-20T09:19:02.659Z,988
2019-06-20T09:20:02.966Z,987.93
2019-06-20T09:21:02.617Z,987.94
2019-06-20T09:22:02.622Z,987.96
2019-06-20T09:23:03.282Z,987.99
2019-06-20T09:24:02.649Z,988.01
2019-06-20T09:25:02.961Z,988.01
2019-06-20T09:26:03.819Z,988.06
2019-06-20T09:27:04.232Z,988.04
2019-06-20T09:28:02.755Z,988.06
2019-06-20T09:29:04.060Z,988.07
2019-06-20T09:30:03.447Z,988.05
2019-06-20T09:31:03.985Z,988.06
2019-06-20T09:32:02.682Z,988.03
2019-06-20T09:33:02.672Z,988.07
2019-06-20T09:34:05.294Z,988.09
2019-06-20T09:35:02.967Z,988.07
2019-06-20T09:36:03.997Z,988.14
2019-06-20T09:37:03.970Z,988.17
2019-06-20T09:38:03.425Z,988.09
2019-06-20T09:39:03.793Z,988.06
2019-06-20T09:40:03.647Z,988.04
2019-06-20T09:41:03.418Z,988.09
2019-06-20T09:42:03.402Z,988.03
2019-06-20T09:43:02.936Z,988.04
2019-06-20T09:44:03.145Z,988.03
2019-06-20T09:45:02.964Z,988.01
2019-06-20T09:46:02.729Z,988.01
2019-06-20T09:47:02.733Z,987.98
2019-06-20T09:48:02.843Z,987.99
2019-06-20T09:49:02.824Z,987.96
2019-06-20T09:50:02.743Z,987.95
2019-06-20T09:51:02.763Z,987.89
2019-06-20T09:52:02.753Z,987.9
2019-06-20T09:53:02.766Z,988.01
2019-06-20T09:54:02.765Z,987.95
2019-06-20T09:55:02.779Z,987.98
2019-06-20T09:56:02.771Z,987.95
2019-06-20T09:57:02.793Z,987.99
2019-06-20T09:58:02.779Z,988.01
2019-06-20T09:59:02.795Z,988.03
2019-06-20T10:00:09.891Z,988.03
2019-06-20T10:01:02.797Z,988.07
2019-06-20T10:02:02.800Z,988.09
2019-06-20T10:03:02.801Z,988.07
2019-06-20T10:04:02.892Z,988.13
2019-06-20T10:05:02.811Z,988.18
2019-06-20T10:06:12.667Z,988.17
2019-06-20T10:07:02.825Z,988.08
2019-06-20T10:08:02.822Z,988.13
2019-06-20T10:09:02.826Z,988.1
2019-06-20T10:10:02.828Z,988.07
2019-06-20T10:11:02.837Z,988.11
2019-06-20T10:12:02.846Z,988.06
2019-06-20T10:13:02.845Z,988.1
2019-06-20T10:14:02.869Z,988.05
2019-06-20T10:15:02.857Z,988.01
2019-06-20T10:16:02.949Z,988
2019-06-20T10:17:02.862Z,987.98
2019-06-20T10:18:02.865Z,987.95
2019-06-20T10:19:02.870Z,987.91
2019-06-20T10:20:02.888Z,987.87
2019-06-20T10:21:02.890Z,987.89
2019-06-20T10:22:02.881Z,987.77
2019-06-20T10:23:02.893Z,987.77
2019-06-20T10:24:02.900Z,987.73
2019-06-20T10:25:02.896Z,987.7
2019-06-20T10:26:02.903Z,987.73
2019-06-20T10:27:02.908Z,987.75
2019-06-20T10:28:02.906Z,987.77
2019-06-20T10:29:03.730Z,987.76
2019-06-20T10:30:13.708Z,987.69
2019-06-20T10:31:02.919Z,987.8
2019-06-20T10:32:02.926Z,987.8
2019-06-20T10:33:02.938Z,987.8
2019-06-20T10:34:02.945Z,987.63
2019-06-20T10:35:02.938Z,987.67
2019-06-20T10:36:02.957Z,987.66
2019-06-20T10:37:02.955Z,987.68
2019-06-20T10:38:02.950Z,987.72
2019-06-20T10:39:02.959Z,987.7
2019-06-20T10:40:02.961Z,987.73
2019-06-20T10:41:02.970Z,987.8
2019-06-20T10:42:02.978Z,987.66
2019-06-20T10:43:02.976Z,987.75
2019-06-20T10:44:02.980Z,987.68
2019-06-20T10:45:03.017Z,987.6
2019-06-20T10:46:02.991Z,987.67
2019-06-20T10:47:02.998Z,987.65
2019-06-20T10:48:03.000Z,987.69
2019-06-20T10:49:03.005Z,987.6
2019-06-20T10:50:03.018Z,987.61
2019-06-20T10:51:03.037Z,987.64
2019-06-20T10:52:03.018Z,987.65
2019-06-20T10:53:03.022Z,987.63
2019-06-20T10:54:03.029Z,987.54
2019-06-20T10:55:03.049Z,987.53
2019-06-20T10:56:03.038Z,987.51
2019-06-20T10:57:03.042Z,987.57
2019-06-20T10:58:03.048Z,987.58
2019-06-20T10:59:03.854Z,987.57
2019-06-20T11:00:03.055Z,987.69
2019-06-20T11:01:03.067Z,987.8
2019-06-20T11:02:03.065Z,987.81
2019-06-20T11:03:03.078Z,987.8
2019-06-20T11:04:03.075Z,987.78
2019-06-20T11:05:03.081Z,987.86
2019-06-20T11:06:03.087Z,987.98
2019-06-20T11:07:03.111Z,987.93
2019-06-20T11:08:03.104Z,987.97
2019-06-20T11:09:03.117Z,987.99
2019-06-20T11:10:03.108Z,988.02
2019-06-20T11:11:03.123Z,988.06
2019-06-20T11:12:03.118Z,988.06
2019-06-20T11:13:03.127Z,988.12
2019-06-20T11:14:03.127Z,988.12
2019-06-20T11:15:03.130Z,988.04
2019-06-20T11:16:03.146Z,987.94
2019-06-20T11:17:03.140Z,988.08
2019-06-20T11:18:03.170Z,988.1
2019-06-20T11:19:03.152Z,988.11
2019-06-20T11:20:03.155Z,987.97
2019-06-20T11:21:03.160Z,987.99
2019-06-20T11:22:03.168Z,988
2019-06-20T11:23:03.170Z,987.95
2019-06-20T11:24:03.182Z,987.98
2019-06-20T11:25:03.203Z,987.98
2019-06-20T11:26:03.185Z,987.94
2019-06-20T11:27:03.189Z,988.01
2019-06-20T11:28:03.195Z,988.03
2019-06-20T11:29:03.263Z,988.05
2019-06-20T11:30:03.364Z,988.09
2019-06-20T11:31:03.210Z,988.01
2019-06-20T11:32:03.212Z,988.03
2019-06-20T11:33:03.293Z,988.02
2019-06-20T11:34:03.216Z,988.03
2019-06-20T11:35:03.236Z,988.04
2019-06-20T11:36:03.228Z,987.97
2019-06-20T11:37:03.230Z,987.99
2019-06-20T11:38:03.232Z,988.02
2019-06-20T11:39:03.238Z,987.97
2019-06-20T11:40:03.245Z,988.1
2019-06-20T11:41:03.265Z,988.14
2019-06-20T11:42:03.258Z,988.1
2019-06-20T11:43:03.371Z,988.12
2019-06-20T11:44:03.256Z,988.11
2019-06-20T11:45:03.263Z,988.21
2019-06-20T11:46:03.264Z,988.23
2019-06-20T11:47:03.287Z,988.18
2019-06-20T11:48:03.298Z,988.12
2019-06-20T11:49:03.297Z,988.18
2019-06-20T11:50:03.303Z,988.15
2019-06-20T11:51:03.284Z,988.16
2019-06-20T11:52:03.290Z,988.09
2019-06-20T11:53:03.290Z,988.09
2019-06-20T11:54:03.293Z,988.1
2019-06-20T11:55:03.302Z,988.04
2019-06-20T11:56:03.305Z,988
2019-06-20T11:57:03.307Z,987.97
2019-06-20T11:58:03.309Z,988
2019-06-20T11:59:03.321Z,987.99
2019-06-20T12:00:03.320Z,987.99
2019-06-20T12:01:04.188Z,988.03
2019-06-20T12:02:03.324Z,988.08
2019-06-20T12:03:03.329Z,988.09
2019-06-20T12:04:03.341Z,988.16
2019-06-20T12:05:03.335Z,988.12
2019-06-20T12:06:03.347Z,988.11
2019-06-20T12:07:03.348Z,988.07
2019-06-20T12:08:03.353Z,988.09
2019-06-20T12:09:03.355Z,988.12
2019-06-20T12:10:03.369Z,988.11
2019-06-20T12:11:03.365Z,988.14
2019-06-20T12:12:03.407Z,988.2
2019-06-20T12:13:03.389Z,988.17
2019-06-20T12:14:03.386Z,988.17
2019-06-20T12:15:06.070Z,988.14
2019-06-20T12:16:03.390Z,988.13
2019-06-20T12:17:03.394Z,988.13
2019-06-20T12:18:03.395Z,988.11
2019-06-20T12:19:03.399Z,988.09
2019-06-20T12:20:03.409Z,988.14
2019-06-20T12:21:03.453Z,988.13
2019-06-20T12:22:03.412Z,988.09
2019-06-20T12:23:03.435Z,988.1
2019-06-20T12:24:03.456Z,988.13
2019-06-20T12:25:03.420Z,988.16
2019-06-20T12:26:03.436Z,988.15
2019-06-20T12:27:03.429Z,988.17
2019-06-20T12:28:03.437Z,988.16
2019-06-20T12:29:03.455Z,988.13
2019-06-20T12:30:03.451Z,988.05
2019-06-20T12:31:18.449Z,988.05
2019-06-20T12:32:03.478Z,988.05
2019-06-20T12:33:03.458Z,988
2019-06-20T12:34:03.487Z,988.03
2019-06-20T12:35:03.486Z,987.96
2019-06-20T12:36:03.489Z,987.93
2019-06-20T12:37:03.492Z,987.91
2019-06-20T12:38:03.495Z,987.89
2019-06-20T12:39:03.512Z,987.9
2019-06-20T12:40:03.497Z,987.91